Time;durP1;ratioP1;P1;durP2;ratioP2;P2;SDS_P1;SDS_P2;PMS_P1;PMS_P2;Temp;Humidity;BMP_temperature;BMP_pressure;BME280_temperature;BME280_humidity;BME280_pressure;Samples;Min_cycle;Max_cycle;Signal;HPM_P1;HPM_P2
2021/08/06 00:01:50;;;;;;;4.65;2.08;;;;;;;;;;6186839;28;20047;-67
2021/08/06 00:04:53;;;;;;;4.47;2.13;;;;;;;;;;6198090;28;20046;-67
2021/08/06 00:07:55;;;;;;;4.03;2.00;;;;;;;;;;6189081;28;20093;-67
2021/08/06 00:10:57;;;;;;;4.53;2.53;;;;;;;;;;6194706;28;20457;-67
2021/08/06 00:13:59;;;;;;;5.05;2.30;;;;;;;;;;6207901;28;20132;-67
2021/08/06 00:17:00;;;;;;;4.38;2.30;;;;;;;;;;6184115;28;20054;-67
2021/08/06 00:20:05;;;;;;;5.95;2.00;;;;;;;;;;6198200;28;20034;-67
2021/08/06 00:23:06;;;;;;;6.57;2.22;;;;;;;;;;6189389;28;20056;-67
2021/08/06 00:26:08;;;;;;;6.55;1.95;;;;;;;;;;6181916;28;20038;-67
2021/08/06 00:29:10;;;;;;;4.93;2.28;;;;;;;;;;6199950;28;20053;-67
2021/08/06 00:32:11;;;;;;;3.80;1.98;;;;;;;;;;6184113;28;20053;-67
2021/08/06 00:35:14;;;;;;;8.23;2.20;;;;;;;;;;6192418;28;20053;-67
2021/08/06 00:38:16;;;;;;;6.20;2.00;;;;;;;;;;6197780;28;20099;-67
2021/08/06 00:41:17;;;;;;;5.07;2.15;;;;;;;;;;6199364;28;20053;-67
2021/08/06 00:44:19;;;;;;;5.00;1.75;;;;;;;;;;6207683;28;20184;-67
2021/08/06 00:47:20;;;;;;;3.88;2.10;;;;;;;;;;6181119;28;20125;-67
2021/08/06 00:50:23;;;;;;;6.07;2.38;;;;;;;;;;6195003;28;20042;-68
2021/08/06 00:53:26;;;;;;;7.43;2.90;;;;;;;;;;6195742;28;20061;-68
2021/08/06 00:56:27;;;;;;;6.22;2.40;;;;;;;;;;6192891;28;20050;-67
2021/08/06 00:59:29;;;;;;;3.97;2.20;;;;;;;;;;6197660;28;20111;-67
2021/08/06 01:02:39;;;;;;;5.03;2.50;;;;;;;;;;6186125;28;20114;-67
2021/08/06 01:05:44;;;;;;;7.88;2.15;;;;;;;;;;6187371;28;20518;-67
2021/08/06 01:08:50;;;;;;;5.80;2.10;;;;;;;;;;6200320;28;20072;-67
2021/08/06 01:11:57;;;;;;;6.93;2.10;;;;;;;;;;6189773;28;20046;-67
2021/08/06 01:15:01;;;;;;;6.68;2.35;;;;;;;;;;6199118;28;20042;-67
2021/08/06 01:18:04;;;;;;;5.05;1.85;;;;;;;;;;6182595;28;20058;-67
2021/08/06 01:21:11;;;;;;;5.03;1.98;;;;;;;;;;6190717;28;20438;-67
2021/08/06 01:24:15;;;;;;;4.63;1.95;;;;;;;;;;6198626;28;20099;-67
2021/08/06 01:27:18;;;;;;;7.10;2.10;;;;;;;;;;6192544;28;20039;-67
2021/08/06 01:30:20;;;;;;;7.13;1.98;;;;;;;;;;6191383;28;20058;-68
2021/08/06 01:33:22;;;;;;;6.35;2.00;;;;;;;;;;6188798;28;20042;-67
2021/08/06 01:36:24;;;;;;;3.60;1.80;;;;;;;;;;6187806;28;20557;-67
2021/08/06 01:39:26;;;;;;;4.93;2.30;;;;;;;;;;6199483;28;20141;-67
2021/08/06 01:42:36;;;;;;;4.15;2.08;;;;;;;;;;6189691;28;20091;-67
2021/08/06 01:45:40;;;;;;;6.95;2.30;;;;;;;;;;6187246;28;20511;-67
2021/08/06 01:48:43;;;;;;;6.63;2.20;;;;;;;;;;6170969;28;20486;-67
2021/08/06 01:51:49;;;;;;;7.18;1.73;;;;;;;;;;6190172;28;20141;-67
2021/08/06 01:54:52;;;;;;;7.57;2.55;;;;;;;;;;6196667;28;20189;-67
2021/08/06 01:57:55;;;;;;;3.75;1.70;;;;;;;;;;6195971;28;20050;-68
2021/08/06 02:00:56;;;;;;;;;;;;;;;;;;6191119;28;21069;-67
2021/08/06 02:03:58;;;;;;;6.65;2.42;;;;;;;;;;6193628;28;20000;-67
2021/08/06 02:07:00;;;;;;;6.43;2.03;;;;;;;;;;6190524;28;20488;-67
2021/08/06 02:10:03;;;;;;;7.10;2.20;;;;;;;;;;6196317;28;20104;-67
2021/08/06 02:13:06;;;;;;;8.40;2.08;;;;;;;;;;6194981;28;20065;-67
2021/08/06 02:16:07;;;;;;;7.00;1.73;;;;;;;;;;6177478;28;20129;-67
2021/08/06 02:19:10;;;;;;;5.72;2.00;;;;;;;;;;6208084;28;20561;-66
2021/08/06 02:22:12;;;;;;;5.57;1.98;;;;;;;;;;6190671;28;20058;-67
2021/08/06 02:25:15;;;;;;;7.43;2.22;;;;;;;;;;6206550;28;20173;-67
2021/08/06 02:28:19;;;;;;;10.05;2.80;;;;;;;;;;6199372;28;20046;-66
2021/08/06 02:31:20;;;;;;;;;;;;;;;;;;6197067;28;20054;-67
2021/08/06 02:34:22;;;;;;;7.32;1.80;;;;;;;;;;6198805;28;19922;-66
2021/08/06 02:37:24;;;;;;;5.78;2.30;;;;;;;;;;6192746;28;20042;-67
2021/08/06 02:40:26;;;;;;;8.27;1.75;;;;;;;;;;6196971;28;20133;-67
2021/08/06 02:43:29;;;;;;;4.50;1.90;;;;;;;;;;6197588;28;20141;-66
2021/08/06 02:46:30;;;;;;;10.00;2.83;;;;;;;;;;6192847;28;20491;-66
2021/08/06 02:49:33;;;;;;;8.50;2.13;;;;;;;;;;6200751;28;20057;-67
2021/08/06 02:52:35;;;;;;;12.07;2.42;;;;;;;;;;6203290;28;20057;-67
2021/08/06 02:55:37;;;;;;;7.53;2.15;;;;;;;;;;6204049;28;20057;-67
2021/08/06 02:58:39;;;;;;;7.35;2.40;;;;;;;;;;6219037;28;20073;-67
2021/08/06 03:01:41;;;;;;;9.05;2.13;;;;;;;;;;6196999;28;20129;-67
2021/08/06 03:04:43;;;;;;;10.18;1.95;;;;;;;;;;6206243;28;20168;-67
2021/08/06 03:07:48;;;;;;;8.98;2.17;;;;;;;;;;6194253;28;20314;-67
2021/08/06 03:10:50;;;;;;;11.18;2.50;;;;;;;;;;6198668;28;20137;-67
2021/08/06 03:13:53;;;;;;;10.73;2.80;;;;;;;;;;6207522;28;20099;-67
2021/08/06 03:16:54;;;;;;;8.68;2.22;;;;;;;;;;6189627;28;20088;-67
2021/08/06 03:19:56;;;;;;;13.40;2.65;;;;;;;;;;6203820;28;20046;-67
2021/08/06 03:22:57;;;;;;;9.55;3.00;;;;;;;;;;6198652;28;20093;-67
2021/08/06 03:25:59;;;;;;;9.80;1.80;;;;;;;;;;6198431;28;20049;-67
2021/08/06 03:29:02;;;;;;;7.72;2.08;;;;;;;;;;6210933;28;20382;-67
2021/08/06 03:32:04;;;;;;;11.25;2.33;;;;;;;;;;6193150;28;20042;-67
2021/08/06 03:35:07;;;;;;;8.95;2.13;;;;;;;;;;6199191;28;20100;-67
2021/08/06 03:38:16;;;;;;;10.38;2.28;;;;;;;;;;6201754;28;20064;-67
2021/08/06 03:41:17;;;;;;;11.40;2.40;;;;;;;;;;6203258;28;20185;-67
2021/08/06 03:44:20;;;;;;;10.27;2.58;;;;;;;;;;6203802;28;20479;-67
2021/08/06 03:47:22;;;;;;;9.13;2.10;;;;;;;;;;6191869;28;20228;-67
2021/08/06 03:50:23;;;;;;;6.82;2.17;;;;;;;;;;6197281;28;20133;-67
2021/08/06 03:53:25;;;;;;;5.30;1.95;;;;;;;;;;6203630;28;20050;-67
2021/08/06 03:56:27;;;;;;;9.65;2.30;;;;;;;;;;6198309;28;20132;-67
2021/08/06 03:59:30;;;;;;;10.32;2.50;;;;;;;;;;6207018;28;20132;-67
2021/08/06 04:02:31;;;;;;;6.65;2.00;;;;;;;;;;6190716;28;20089;-67
2021/08/06 04:05:33;;;;;;;6.28;2.50;;;;;;;;;;6193897;28;20119;-67
2021/08/06 04:08:35;;;;;;;10.25;2.10;;;;;;;;;;6200657;28;20050;-67
2021/08/06 04:11:36;;;;;;;5.97;2.40;;;;;;;;;;6193932;28;20088;-67
2021/08/06 04:14:39;;;;;;;8.18;2.70;;;;;;;;;;6200050;28;20512;-67
2021/08/06 04:17:41;;;;;;;7.35;3.00;;;;;;;;;;6189292;28;20148;-67
2021/08/06 04:20:42;;;;;;;8.93;2.53;;;;;;;;;;6193649;28;20460;-67
2021/08/06 04:23:44;;;;;;;8.45;2.83;;;;;;;;;;6197719;28;20187;-67
2021/08/06 04:26:45;;;;;;;12.80;3.75;;;;;;;;;;6192798;28;20605;-67
2021/08/06 04:29:48;;;;;;;7.72;3.00;;;;;;;;;;6203336;28;20050;-67
2021/08/06 04:32:50;;;;;;;7.05;2.60;;;;;;;;;;6190751;28;20074;-67
2021/08/06 04:35:51;;;;;;;7.97;2.83;;;;;;;;;;6192886;28;20510;-67
2021/08/06 04:38:53;;;;;;;8.27;2.65;;;;;;;;;;6199800;28;20104;-67
2021/08/06 04:41:55;;;;;;;10.98;3.40;;;;;;;;;;6195742;28;20100;-66
2021/08/06 04:44:58;;;;;;;13.77;2.83;;;;;;;;;;6209781;28;20050;-66
2021/08/06 04:48:00;;;;;;;11.43;3.40;;;;;;;;;;6196180;28;20096;-67
2021/08/06 04:51:02;;;;;;;11.20;2.77;;;;;;;;;;6195646;28;20149;-67
2021/08/06 04:54:04;;;;;;;9.35;2.72;;;;;;;;;;6200751;28;20185;-67
2021/08/06 04:57:06;;;;;;;6.07;2.47;;;;;;;;;;6191192;28;20064;-67
2021/08/06 05:00:10;;;;;;;10.55;2.92;;;;;;;;;;6198273;28;20185;-67
2021/08/06 05:03:12;;;;;;;7.68;2.85;;;;;;;;;;6196353;28;20397;-67
2021/08/06 05:06:14;;;;;;;8.13;2.83;;;;;;;;;;6190605;28;20049;-67
2021/08/06 05:09:16;;;;;;;6.25;2.95;;;;;;;;;;6199344;28;20057;-67
2021/08/06 05:12:17;;;;;;;9.27;2.80;;;;;;;;;;6191989;28;20497;-68
2021/08/06 05:15:20;;;;;;;6.57;2.78;;;;;;;;;;6195147;28;20043;-68
2021/08/06 05:18:22;;;;;;;8.88;2.80;;;;;;;;;;6191322;28;20617;-68
2021/08/06 05:21:23;;;;;;;8.93;2.80;;;;;;;;;;6190754;28;20144;-66
2021/08/06 05:24:25;;;;;;;8.88;2.75;;;;;;;;;;6198942;28;20203;-67
2021/08/06 05:27:26;;;;;;;10.05;2.88;;;;;;;;;;6195751;28;20046;-67
2021/08/06 05:30:30;;;;;;;15.10;3.60;;;;;;;;;;6189871;28;20435;-67
2021/08/06 05:33:31;;;;;;;8.68;2.90;;;;;;;;;;6193523;28;20041;-67
2021/08/06 05:36:33;;;;;;;7.65;2.72;;;;;;;;;;6187737;28;20217;-67
2021/08/06 05:39:34;;;;;;;9.55;2.97;;;;;;;;;;6199662;28;20050;-67
2021/08/06 05:42:36;;;;;;;8.07;2.67;;;;;;;;;;6193805;28;20054;-67
2021/08/06 05:45:39;;;;;;;11.32;2.80;;;;;;;;;;6189753;28;20478;-66
2021/08/06 05:48:41;;;;;;;10.07;3.13;;;;;;;;;;6194267;28;20088;-66
2021/08/06 05:51:42;;;;;;;12.20;3.20;;;;;;;;;;6190015;28;20208;-67
2021/08/06 05:54:44;;;;;;;8.60;3.17;;;;;;;;;;6199196;28;20557;-68
2021/08/06 05:57:46;;;;;;;11.40;3.15;;;;;;;;;;6194843;28;20050;-67
2021/08/06 06:00:49;;;;;;;9.82;3.30;;;;;;;;;;6184973;28;20042;-69
2021/08/06 06:03:51;;;;;;;15.95;3.42;;;;;;;;;;6189249;28;20103;-68
2021/08/06 06:06:52;;;;;;;13.93;3.92;;;;;;;;;;6192103;28;20836;-68
2021/08/06 06:09:54;;;;;;;10.35;2.95;;;;;;;;;;6195799;28;20055;-67
2021/08/06 06:12:56;;;;;;;13.02;2.90;;;;;;;;;;6186894;28;20379;-67
2021/08/06 06:15:58;;;;;;;11.65;2.60;;;;;;;;;;6185653;28;20568;-68
2021/08/06 06:19:00;;;;;;;8.48;2.38;;;;;;;;;;6196836;28;20038;-68
2021/08/06 06:22:01;;;;;;;8.15;2.58;;;;;;;;;;6188934;28;20042;-69
2021/08/06 06:25:04;;;;;;;11.10;3.10;;;;;;;;;;6199809;28;20056;-69
2021/08/06 06:28:06;;;;;;;9.70;2.95;;;;;;;;;;6189482;28;20137;-69
2021/08/06 06:31:09;;;;;;;11.20;2.60;;;;;;;;;;6183972;28;20073;-69
2021/08/06 06:34:11;;;;;;;11.18;2.45;;;;;;;;;;6195736;28;20046;-68
2021/08/06 06:37:13;;;;;;;8.48;2.50;;;;;;;;;;6186565;28;20050;-68
2021/08/06 06:40:16;;;;;;;16.70;3.60;;;;;;;;;;6187929;28;20181;-69
2021/08/06 06:43:17;;;;;;;13.13;3.40;;;;;;;;;;6200111;28;20221;-68
2021/08/06 06:46:20;;;;;;;16.10;3.10;;;;;;;;;;6179924;28;20148;-69
2021/08/06 06:49:22;;;;;;;13.20;2.40;;;;;;;;;;6196227;28;20516;-68
2021/08/06 06:52:23;;;;;;;11.73;2.72;;;;;;;;;;6188613;28;20233;-69
2021/08/06 06:55:25;;;;;;;11.55;2.53;;;;;;;;;;6188270;28;20170;-69
2021/08/06 06:58:27;;;;;;;13.52;3.30;;;;;;;;;;6192138;28;20039;-68
2021/08/06 07:01:29;;;;;;;8.48;2.30;;;;;;;;;;6179777;28;20062;-69
2021/08/06 07:04:31;;;;;;;8.23;2.20;;;;;;;;;;6195557;28;20134;-68
2021/08/06 07:07:33;;;;;;;12.45;2.50;;;;;;;;;;6186855;28;20042;-68
2021/08/06 07:10:34;;;;;;;11.30;2.92;;;;;;;;;;6186063;28;20530;-69
2021/08/06 07:13:36;;;;;;;12.00;2.40;;;;;;;;;;6197929;28;20450;-68
2021/08/06 07:16:39;;;;;;;10.85;3.10;;;;;;;;;;6180497;28;20140;-68
2021/08/06 07:19:40;;;;;;;7.50;2.03;;;;;;;;;;6193207;28;20161;-68
2021/08/06 07:22:42;;;;;;;11.35;2.55;;;;;;;;;;6185342;28;20441;-68
2021/08/06 07:25:44;;;;;;;7.78;2.08;;;;;;;;;;6190604;28;20093;-69
2021/08/06 07:28:45;;;;;;;11.13;2.50;;;;;;;;;;6196203;28;20111;-69
2021/08/06 07:31:48;;;;;;;10.43;2.13;;;;;;;;;;6178631;28;20170;-69
2021/08/06 07:34:50;;;;;;;9.05;2.22;;;;;;;;;;6196469;28;20042;-69
2021/08/06 07:37:51;;;;;;;7.65;1.98;;;;;;;;;;6184065;28;22530;-69
2021/08/06 07:40:54;;;;;;;9.23;2.88;;;;;;;;;;6190317;28;20042;-69
2021/08/06 07:43:56;;;;;;;7.93;2.15;;;;;;;;;;6205578;28;20041;-69
2021/08/06 07:46:59;;;;;;;8.63;1.98;;;;;;;;;;6185304;28;20547;-69
2021/08/06 07:50:00;;;;;;;;;;;;;;;;;;6200841;28;20580;-69
2021/08/06 07:53:02;;;;;;;7.43;2.28;;;;;;;;;;6190729;28;20497;-69
2021/08/06 07:56:04;;;;;;;10.95;2.38;;;;;;;;;;6194814;28;20193;-69
2021/08/06 07:59:06;;;;;;;4.68;2.10;;;;;;;;;;6201486;28;20561;-69
2021/08/06 08:02:09;;;;;;;5.53;2.10;;;;;;;;;;6176503;28;20049;-69
2021/08/06 08:05:10;;;;;;;;;;;;;;;;;;6193303;28;20425;-70
2021/08/06 08:08:12;;;;;;;9.18;2.30;;;;;;;;;;6199273;28;20018;-69
2021/08/06 08:11:13;;;;;;;7.68;2.00;;;;;;;;;;6193157;28;21615;-69
2021/08/06 08:14:15;;;;;;;7.57;1.80;;;;;;;;;;6204732;28;20056;-69
2021/08/06 08:17:18;;;;;;;11.02;2.75;;;;;;;;;;6176746;28;20185;-69
2021/08/06 08:20:19;;;;;;;;;;;;;;;;;;6190040;28;20107;-69
2021/08/06 08:23:21;;;;;;;7.28;2.35;;;;;;;;;;6201173;28;19961;-69
2021/08/06 08:26:23;;;;;;;6.63;2.20;;;;;;;;;;6193750;28;20507;-69
2021/08/06 08:29:25;;;;;;;5.38;2.22;;;;;;;;;;6200147;28;20502;-69
2021/08/06 08:32:28;;;;;;;7.68;2.00;;;;;;;;;;6184593;28;20536;-69
2021/08/06 08:35:29;;;;;;;6.93;2.03;;;;;;;;;;6189599;28;21428;-69
2021/08/06 08:38:31;;;;;;;7.20;2.25;;;;;;;;;;6198370;28;20068;-69
2021/08/06 08:41:33;;;;;;;8.00;2.20;;;;;;;;;;6201370;28;20080;-69
2021/08/06 08:44:35;;;;;;;5.88;2.00;;;;;;;;;;6202252;28;20054;-69
2021/08/06 08:47:43;;;;;;;10.95;3.00;;;;;;;;;;6189942;28;20494;-69
2021/08/06 08:50:45;;;;;;;6.13;2.10;;;;;;;;;;6189575;28;20062;-69
2021/08/06 08:53:46;;;;;;;6.93;2.53;;;;;;;;;;6198557;28;20136;-69
2021/08/06 08:56:48;;;;;;;8.75;2.17;;;;;;;;;;6192738;28;20038;-69
2021/08/06 08:59:50;;;;;;;4.38;1.83;;;;;;;;;;6198573;28;20081;-69
2021/08/06 09:02:53;;;;;;;8.57;2.60;;;;;;;;;;6176382;28;20088;-69
2021/08/06 09:05:55;;;;;;;9.70;2.45;;;;;;;;;;6184347;28;20042;-69
2021/08/06 09:09:12;;;;;;;6.88;2.05;;;;;;;;;;6200342;28;20390;-69
2021/08/06 09:12:14;;;;;;;9.10;2.05;;;;;;;;;;6194341;28;20043;-69
2021/08/06 09:15:16;;;;;;;7.05;1.95;;;;;;;;;;6189453;28;20310;-69
2021/08/06 09:18:35;;;;;;;7.43;2.23;;;;;;;;;;6192903;28;20049;-69
2021/08/06 09:21:37;;;;;;;6.53;2.03;;;;;;;;;;6185227;28;20069;-69
2021/08/06 09:24:57;;;;;;;9.00;2.40;;;;;;;;;;6197230;28;20046;-69
2021/08/06 09:28:02;;;;;;;5.45;1.83;;;;;;;;;;6189981;28;20068;-69
2021/08/06 09:31:15;;;;;;;7.38;2.60;;;;;;;;;;6180322;28;20133;-69
2021/08/06 09:34:21;;;;;;;5.30;2.28;;;;;;;;;;6196932;28;20042;-69
2021/08/06 09:37:23;;;;;;;5.97;2.00;;;;;;;;;;6186811;28;20050;-70
2021/08/06 09:40:26;;;;;;;5.80;2.40;;;;;;;;;;6193573;28;20041;-69
2021/08/06 09:43:28;;;;;;;7.25;2.20;;;;;;;;;;6198040;28;20213;-69
2021/08/06 09:46:31;;;;;;;6.53;2.00;;;;;;;;;;6177493;28;20043;-69
2021/08/06 09:49:34;;;;;;;8.65;2.10;;;;;;;;;;6196777;28;20046;-69
2021/08/06 09:52:37;;;;;;;4.95;2.10;;;;;;;;;;6191260;28;20050;-70
2021/08/06 09:55:41;;;;;;;7.90;2.45;;;;;;;;;;6188155;28;20065;-69
2021/08/06 09:58:58;;;;;;;4.25;2.05;;;;;;;;;;6197103;28;20880;-70
2021/08/06 10:02:14;;;;;;;6.60;2.38;;;;;;;;;;6177230;28;20723;-69
2021/08/06 10:05:19;;;;;;;5.22;2.13;;;;;;;;;;6190473;28;20106;-70
2021/08/06 10:08:20;;;;;;;6.28;2.83;;;;;;;;;;6187601;28;20109;-70
2021/08/06 10:11:22;;;;;;;8.60;3.07;;;;;;;;;;6193044;28;20125;-70
2021/08/06 10:14:24;;;;;;;7.97;2.20;;;;;;;;;;6200611;28;20124;-70
2021/08/06 10:17:26;;;;;;;6.45;2.75;;;;;;;;;;6179619;28;20050;-70
2021/08/06 10:20:29;;;;;;;6.15;2.45;;;;;;;;;;6191409;28;20116;-70
2021/08/06 10:23:31;;;;;;;5.93;2.30;;;;;;;;;;6211440;28;20050;-70
2021/08/06 10:26:33;;;;;;;6.07;2.90;;;;;;;;;;6199738;28;20053;-69
2021/08/06 10:29:35;;;;;;;5.30;2.50;;;;;;;;;;6209460;28;20042;-69
2021/08/06 10:32:38;;;;;;;5.50;2.20;;;;;;;;;;6184724;28;20208;-69
2021/08/06 10:35:49;;;;;;;6.00;2.20;;;;;;;;;;6195102;28;20461;-69
2021/08/06 10:38:51;;;;;;;7.50;1.90;;;;;;;;;;6206859;28;20177;-70
2021/08/06 10:41:53;;;;;;;7.40;2.60;;;;;;;;;;6189054;28;20112;-69
2021/08/06 10:44:57;;;;;;;6.57;2.47;;;;;;;;;;6215766;28;20594;-69
2021/08/06 10:47:59;;;;;;;4.72;2.03;;;;;;;;;;6171968;28;20113;-69
2021/08/06 10:51:21;;;;;;;8.32;2.80;;;;;;;;;;6198504;28;20042;-69
2021/08/06 10:54:28;;;;;;;4.88;1.90;;;;;;;;;;6208140;28;20050;-70
2021/08/06 10:57:37;;;;;;;5.90;2.17;;;;;;;;;;6200145;28;20165;-70
2021/08/06 11:00:38;;;;;;;4.72;2.22;;;;;;;;;;6193490;28;20125;-70
2021/08/06 11:03:40;;;;;;;9.50;2.85;;;;;;;;;;6214846;28;20428;-69
2021/08/06 11:06:46;;;;;;;8.00;2.28;;;;;;;;;;6197663;28;20093;-70
2021/08/06 11:09:47;;;;;;;7.03;2.38;;;;;;;;;;6206844;28;20198;-70
2021/08/06 11:12:49;;;;;;;4.97;2.10;;;;;;;;;;6204480;28;20046;-70
2021/08/06 11:16:04;;;;;;;8.38;2.40;;;;;;;;;;6195126;28;20070;-70
2021/08/06 11:19:06;;;;;;;5.28;2.30;;;;;;;;;;6207315;28;20106;-70
2021/08/06 11:22:11;;;;;;;5.40;2.33;;;;;;;;;;6198230;28;20096;-70
2021/08/06 11:25:15;;;;;;;5.75;2.45;;;;;;;;;;6203162;28;20050;-70
2021/08/06 11:28:25;;;;;;;4.18;2.20;;;;;;;;;;6201456;28;20053;-70
2021/08/06 11:31:26;;;;;;;5.53;2.30;;;;;;;;;;6193875;28;20701;-69
2021/08/06 11:34:28;;;;;;;5.25;2.13;;;;;;;;;;6210667;28;20068;-70
2021/08/06 11:37:47;;;;;;;5.05;2.45;;;;;;;;;;6197529;28;20056;-69
2021/08/06 11:40:50;;;;;;;4.90;2.45;;;;;;;;;;6186170;28;20133;-70
2021/08/06 11:43:52;;;;;;;3.60;2.22;;;;;;;;;;6210337;28;20045;-70
2021/08/06 11:46:54;;;;;;;4.95;2.10;;;;;;;;;;6194267;28;20106;-70
2021/08/06 11:49:56;;;;;;;3.65;2.13;;;;;;;;;;6203381;28;20042;-71
2021/08/06 11:52:59;;;;;;;5.15;2.25;;;;;;;;;;6198254;28;20515;-70
2021/08/06 11:56:01;;;;;;;4.68;2.17;;;;;;;;;;6197130;28;20105;-70
2021/08/06 11:59:07;;;;;;;3.65;2.20;;;;;;;;;;6203220;28;20057;-70
2021/08/06 12:02:19;;;;;;;10.52;2.45;;;;;;;;;;6190797;28;20055;-70
2021/08/06 12:05:21;;;;;;;;;;;;;;;;;;6197195;28;20077;-70
2021/08/06 12:08:26;;;;;;;5.18;2.25;;;;;;;;;;6202792;28;19921;-70
2021/08/06 12:11:30;;;;;;;4.25;2.22;;;;;;;;;;6198563;28;20731;-70
2021/08/06 12:14:32;;;;;;;5.00;2.47;;;;;;;;;;6205728;28;20413;-70
2021/08/06 12:17:33;;;;;;;5.35;2.47;;;;;;;;;;6188244;28;20077;-70
2021/08/06 12:20:35;;;;;;;5.40;2.28;;;;;;;;;;6198240;28;20662;-70
2021/08/06 12:23:43;;;;;;;3.60;2.22;;;;;;;;;;6212131;28;20129;-71
2021/08/06 12:26:47;;;;;;;5.10;2.38;;;;;;;;;;6189712;28;20038;-70
2021/08/06 12:29:48;;;;;;;3.97;2.65;;;;;;;;;;6204257;28;20060;-70
2021/08/06 12:32:50;;;;;;;3.85;2.15;;;;;;;;;;6162295;28;20042;-70
2021/08/06 12:35:51;;;;;;;2.50;1.70;;;;;;;;;;6190952;28;20030;-70
2021/08/06 12:39:06;;;;;;;4.43;1.92;;;;;;;;;;6201967;28;20037;-70
2021/08/06 12:42:13;;;;;;;3.88;1.90;;;;;;;;;;6196694;28;20285;-70
2021/08/06 12:45:19;;;;;;;6.97;2.20;;;;;;;;;;6197888;28;20648;-70
2021/08/06 12:48:21;;;;;;;4.65;2.08;;;;;;;;;;6201650;28;20070;-70
2021/08/06 12:51:23;;;;;;;7.07;2.60;;;;;;;;;;6202130;28;20068;-70
2021/08/06 12:54:35;;;;;;;4.68;1.92;;;;;;;;;;6207985;28;20066;-70
2021/08/06 12:57:41;;;;;;;4.15;2.13;;;;;;;;;;6190031;28;20073;-70
2021/08/06 13:00:46;;;;;;;3.50;2.03;;;;;;;;;;6185291;28;20133;-70
2021/08/06 13:03:47;;;;;;;2.58;1.58;;;;;;;;;;6197538;28;20050;-70
2021/08/06 13:06:50;;;;;;;5.32;1.90;;;;;;;;;;6165489;28;20038;-70
2021/08/06 13:09:53;;;;;;;4.78;2.10;;;;;;;;;;6201064;28;20074;-70
2021/08/06 13:12:55;;;;;;;5.45;2.13;;;;;;;;;;6191116;28;20062;-70
2021/08/06 13:15:57;;;;;;;5.68;1.98;;;;;;;;;;6185289;28;20042;-70
2021/08/06 13:18:58;;;;;;;3.65;1.90;;;;;;;;;;6199427;28;20046;-70
2021/08/06 13:22:01;;;;;;;2.58;1.65;;;;;;;;;;6187457;28;20046;-70
2021/08/06 13:25:05;;;;;;;5.40;2.00;;;;;;;;;;6198823;28;20140;-70
2021/08/06 13:28:06;;;;;;;5.35;2.22;;;;;;;;;;6193979;28;20049;-70
2021/08/06 13:31:08;;;;;;;;;;;;;;;;;;6185761;28;20062;-70
2021/08/06 13:34:09;;;;;;;2.77;2.00;;;;;;;;;;6198606;28;19936;-70
2021/08/06 13:37:11;;;;;;;4.22;2.35;;;;;;;;;;6183555;28;20457;-71
2021/08/06 13:40:14;;;;;;;6.05;2.15;;;;;;;;;;6192640;28;20053;-71
2021/08/06 13:43:16;;;;;;;3.63;1.70;;;;;;;;;;6195612;28;20045;-70
2021/08/06 13:46:17;;;;;;;;;;;;;;;;;;6174135;28;20461;-71
2021/08/06 13:49:19;;;;;;;5.65;1.88;;;;;;;;;;6199902;28;19976;-70
2021/08/06 13:52:20;;;;;;;2.70;1.90;;;;;;;;;;6187916;28;20042;-70
2021/08/06 13:55:23;;;;;;;3.78;2.10;;;;;;;;;;6191007;28;20137;-71
2021/08/06 13:58:25;;;;;;;3.05;1.67;;;;;;;;;;6194245;28;20181;-70
2021/08/06 14:01:27;;;;;;;4.10;2.00;;;;;;;;;;6178388;28;20508;-70
2021/08/06 14:04:29;;;;;;;4.65;2.30;;;;;;;;;;6196542;28;20143;-70
2021/08/06 14:07:30;;;;;;;4.97;2.00;;;;;;;;;;6184347;28;20421;-70
2021/08/06 14:10:33;;;;;;;3.17;1.70;;;;;;;;;;6195053;28;20046;-70
2021/08/06 14:13:36;;;;;;;2.88;1.85;;;;;;;;;;6204495;28;20046;-69
2021/08/06 14:16:39;;;;;;;3.08;1.60;;;;;;;;;;6182764;28;20577;-70
2021/08/06 14:19:41;;;;;;;4.45;1.63;;;;;;;;;;6199733;28;20050;-70
2021/08/06 14:22:42;;;;;;;6.78;1.70;;;;;;;;;;6190416;28;20322;-70
2021/08/06 14:25:45;;;;;;;5.45;1.77;;;;;;;;;;6195221;28;20779;-70
2021/08/06 14:28:48;;;;;;;3.45;1.70;;;;;;;;;;6201150;28;20045;-70
2021/08/06 14:31:49;;;;;;;4.90;1.70;;;;;;;;;;6179123;28;20073;-70
2021/08/06 14:34:51;;;;;;;3.30;1.90;;;;;;;;;;6196038;28;20141;-70
2021/08/06 14:37:52;;;;;;;3.33;1.83;;;;;;;;;;6190228;28;20133;-70
2021/08/06 14:40:55;;;;;;;8.20;2.08;;;;;;;;;;6190743;28;20038;-70
2021/08/06 14:43:57;;;;;;;3.13;1.60;;;;;;;;;;6202911;28;20172;-70
2021/08/06 14:46:59;;;;;;;5.03;1.92;;;;;;;;;;6185965;28;20156;-70
2021/08/06 14:50:00;;;;;;;4.30;1.70;;;;;;;;;;6194897;28;20038;-70
2021/08/06 14:53:02;;;;;;;5.65;1.83;;;;;;;;;;6190357;28;20177;-70
2021/08/06 14:56:05;;;;;;;4.25;1.60;;;;;;;;;;6191086;28;20045;-70
2021/08/06 14:59:07;;;;;;;3.42;1.73;;;;;;;;;;6198202;28;20053;-70
2021/08/06 15:02:08;;;;;;;3.55;1.90;;;;;;;;;;6185705;28;20046;-70
2021/08/06 15:05:10;;;;;;;2.65;1.83;;;;;;;;;;6189949;28;20046;-70
2021/08/06 15:08:13;;;;;;;3.78;1.90;;;;;;;;;;6194510;28;20046;-70
2021/08/06 15:11:16;;;;;;;3.65;1.88;;;;;;;;;;6195111;28;20046;-70
2021/08/06 15:14:17;;;;;;;4.10;1.85;;;;;;;;;;6199939;28;21302;-70
2021/08/06 15:17:19;;;;;;;5.57;1.90;;;;;;;;;;6186462;28;20054;-70
2021/08/06 15:20:21;;;;;;;3.03;1.77;;;;;;;;;;6189865;28;20513;-70
2021/08/06 15:23:22;;;;;;;2.97;1.60;;;;;;;;;;6193250;28;20092;-70
2021/08/06 15:26:25;;;;;;;2.78;1.60;;;;;;;;;;6187312;28;20470;-70
2021/08/06 15:29:27;;;;;;;2.78;1.65;;;;;;;;;;6201396;28;20079;-70
2021/08/06 15:32:28;;;;;;;3.17;1.40;;;;;;;;;;6174347;28;20096;-69
2021/08/06 15:35:30;;;;;;;5.25;1.60;;;;;;;;;;6186978;28;20459;-70
2021/08/06 15:38:33;;;;;;;5.18;1.65;;;;;;;;;;6196157;28;20562;-70
2021/08/06 15:41:36;;;;;;;4.30;1.92;;;;;;;;;;6183835;28;20173;-70
2021/08/06 15:44:38;;;;;;;5.10;1.80;;;;;;;;;;6198073;28;20487;-70
2021/08/06 15:47:40;;;;;;;4.25;1.73;;;;;;;;;;6179214;28;20132;-70
2021/08/06 15:50:41;;;;;;;5.82;2.60;;;;;;;;;;6183262;28;20069;-70
2021/08/06 15:53:43;;;;;;;3.00;1.80;;;;;;;;;;6201346;28;20060;-69
2021/08/06 15:56:46;;;;;;;3.67;1.43;;;;;;;;;;6190665;28;20402;-70
2021/08/06 15:59:53;;;;;;;4.90;1.90;;;;;;;;;;6200736;28;20193;-69
2021/08/06 16:02:56;;;;;;;4.60;1.70;;;;;;;;;;6161601;28;20046;-70
2021/08/06 16:05:58;;;;;;;5.07;1.50;;;;;;;;;;6190516;28;20042;-70
2021/08/06 16:08:59;;;;;;;5.83;1.90;;;;;;;;;;6204362;28;20068;-69
2021/08/06 16:12:04;;;;;;;4.27;1.73;;;;;;;;;;6178033;28;20042;-70
2021/08/06 16:15:06;;;;;;;4.53;2.05;;;;;;;;;;6195163;28;20526;-71
2021/08/06 16:18:09;;;;;;;3.75;1.90;;;;;;;;;;6191466;28;20042;-69
2021/08/06 16:21:11;;;;;;;5.15;2.05;;;;;;;;;;6190009;28;20045;-69
2021/08/06 16:24:13;;;;;;;2.35;1.58;;;;;;;;;;6202242;28;20532;-69
2021/08/06 16:27:16;;;;;;;4.93;1.70;;;;;;;;;;6183267;28;20153;-70
2021/08/06 16:30:17;;;;;;;3.65;1.67;;;;;;;;;;6191721;28;20043;-70
2021/08/06 16:33:19;;;;;;;5.38;2.08;;;;;;;;;;6190124;28;20112;-70
2021/08/06 16:36:20;;;;;;;3.35;1.80;;;;;;;;;;6190582;28;20057;-70
2021/08/06 16:39:22;;;;;;;3.83;2.33;;;;;;;;;;6201418;28;20039;-69
2021/08/06 16:42:26;;;;;;;5.38;1.75;;;;;;;;;;6200250;28;20050;-70
2021/08/06 16:45:27;;;;;;;4.32;1.77;;;;;;;;;;6186332;28;20072;-70
2021/08/06 16:48:29;;;;;;;5.38;1.83;;;;;;;;;;6205800;28;20145;-70
2021/08/06 16:51:31;;;;;;;5.85;1.80;;;;;;;;;;6198633;28;20052;-70
2021/08/06 16:54:32;;;;;;;4.93;1.85;;;;;;;;;;6200537;28;20400;-70
2021/08/06 16:57:36;;;;;;;3.97;1.70;;;;;;;;;;6199785;28;20050;-69
2021/08/06 17:00:37;;;;;;;4.90;1.58;;;;;;;;;;6190058;28;20050;-70
2021/08/06 17:03:39;;;;;;;4.07;1.70;;;;;;;;;;6195794;28;20052;-70
2021/08/06 17:06:40;;;;;;;4.88;1.70;;;;;;;;;;6194111;28;20517;-70
2021/08/06 17:09:42;;;;;;;2.58;1.42;;;;;;;;;;6199417;28;21195;-70
2021/08/06 17:12:45;;;;;;;2.97;1.95;;;;;;;;;;6186864;28;20072;-70
2021/08/06 17:15:47;;;;;;;5.18;2.20;;;;;;;;;;6177840;28;20131;-70
2021/08/06 17:18:49;;;;;;;4.10;1.80;;;;;;;;;;6197316;28;20054;-70
2021/08/06 17:21:51;;;;;;;6.28;2.35;;;;;;;;;;6189821;28;20567;-70
2021/08/06 17:24:52;;;;;;;2.45;1.58;;;;;;;;;;6198886;28;20046;-70
2021/08/06 17:27:55;;;;;;;4.82;1.50;;;;;;;;;;6191854;28;20048;-70
2021/08/06 17:30:57;;;;;;;4.00;1.67;;;;;;;;;;6182117;28;20076;-69
2021/08/06 17:33:58;;;;;;;4.95;1.80;;;;;;;;;;6193918;28;20137;-70
2021/08/06 17:37:00;;;;;;;4.50;1.60;;;;;;;;;;6189344;28;20350;-70
2021/08/06 17:40:02;;;;;;;4.45;2.00;;;;;;;;;;6198346;28;20060;-70
2021/08/06 17:43:05;;;;;;;4.78;1.90;;;;;;;;;;6187324;28;20145;-70
2021/08/06 17:46:07;;;;;;;5.55;2.28;;;;;;;;;;6181861;28;20087;-70
2021/08/06 17:49:08;;;;;;;4.47;1.75;;;;;;;;;;6196696;28;20046;-70
2021/08/06 17:52:10;;;;;;;4.07;1.95;;;;;;;;;;6188766;28;20497;-70
2021/08/06 17:55:12;;;;;;;4.75;1.77;;;;;;;;;;6189856;28;20048;-70
2021/08/06 17:58:14;;;;;;;4.22;1.88;;;;;;;;;;6196020;28;20122;-69
2021/08/06 18:01:16;;;;;;;5.63;2.38;;;;;;;;;;6185313;28;20060;-69
2021/08/06 18:04:18;;;;;;;5.00;2.03;;;;;;;;;;6193476;28;20211;-69
2021/08/06 18:07:19;;;;;;;5.43;2.10;;;;;;;;;;6187998;28;20554;-69
2021/08/06 18:10:21;;;;;;;4.97;1.83;;;;;;;;;;6193097;28;20097;-70
2021/08/06 18:13:24;;;;;;;4.65;1.98;;;;;;;;;;6197753;28;20055;-70
2021/08/06 18:16:25;;;;;;;;;;;;;;;;;;6174097;28;20103;-69